createdAt,value
2023-04-06T00:00:00.763Z,55.33
2023-04-06T00:02:28.850Z,55.29
2023-04-06T00:04:56.931Z,55.63
2023-04-06T00:07:26.452Z,56.17
2023-04-06T00:09:54.416Z,56.85
2023-04-06T00:12:22.392Z,56.67
2023-04-06T00:14:50.465Z,56.14
2023-04-06T00:17:18.542Z,56.06
2023-04-06T00:19:46.641Z,56.05
2023-04-06T00:22:14.623Z,56.24
2023-04-06T00:24:44.044Z,56.39
2023-04-06T00:27:11.985Z,56.70
2023-04-06T00:29:42.005Z,56.87
2023-04-06T00:32:10.530Z,56.78
2023-04-06T00:34:38.524Z,57.39
2023-04-06T00:37:06.867Z,57.17
2023-04-06T00:39:34.810Z,57.08
2023-04-06T00:42:12.943Z,57.16
2023-04-06T00:44:41.043Z,57.15
2023-04-06T00:47:09.328Z,57.31
2023-04-06T00:49:37.648Z,57.30
2023-04-06T00:52:05.527Z,57.31
2023-04-06T00:54:33.850Z,57.44
2023-04-06T00:57:03.734Z,57.93
2023-04-06T00:59:32.007Z,57.71
2023-04-06T01:02:00.671Z,57.94
2023-04-06T01:04:29.313Z,57.82
2023-04-06T01:06:57.518Z,57.78
2023-04-06T01:09:25.807Z,57.94
2023-04-06T01:11:53.842Z,57.75
2023-04-06T01:14:23.783Z,58.27
2023-04-06T01:16:51.882Z,58.54
2023-04-06T01:19:20.301Z,58.70
2023-04-06T01:21:50.332Z,58.85
2023-04-06T01:24:19.914Z,58.59
2023-04-06T01:26:48.002Z,60.07
2023-04-06T01:29:15.936Z,59.37
2023-04-06T01:31:44.164Z,58.93
2023-04-06T01:34:12.385Z,58.73
2023-04-06T01:36:40.616Z,58.85
2023-04-06T01:39:09.096Z,59.30
2023-04-06T01:41:38.672Z,59.52
2023-04-06T01:44:07.164Z,59.71
2023-04-06T01:46:35.338Z,59.75
2023-04-06T01:49:03.392Z,60.25
2023-04-06T01:51:31.891Z,60.68
2023-04-06T01:53:59.943Z,60.24
2023-04-06T01:56:27.916Z,60.55
2023-04-06T01:58:57.331Z,60.67
2023-04-06T02:01:25.608Z,60.48
2023-04-06T02:03:53.575Z,61.24
2023-04-06T02:06:21.959Z,60.51
2023-04-06T02:08:50.036Z,60.86
2023-04-06T02:11:17.945Z,60.71
2023-04-06T02:13:45.940Z,61.57
2023-04-06T02:16:16.038Z,61.05
2023-04-06T02:18:44.100Z,61.45
2023-04-06T02:21:12.004Z,62.17
2023-04-06T02:23:39.929Z,61.98
2023-04-06T02:26:07.855Z,61.52
2023-04-06T02:28:35.783Z,61.19
2023-04-06T02:31:03.882Z,60.76
2023-04-06T02:33:33.195Z,60.59
2023-04-06T02:36:01.239Z,61.18
2023-04-06T02:38:29.355Z,61.23
2023-04-06T02:40:57.678Z,61.14
2023-04-06T02:43:25.813Z,61.36
2023-04-06T02:45:53.971Z,61.36
2023-04-06T02:48:22.142Z,61.78
2023-04-06T02:50:51.649Z,61.75
2023-04-06T02:53:19.720Z,62.01
2023-04-06T02:55:47.684Z,61.71
2023-04-06T02:58:15.566Z,62.09
2023-04-06T03:00:43.568Z,62.24
2023-04-06T03:03:11.695Z,61.72
2023-04-06T03:05:39.742Z,62.96
2023-04-06T03:08:09.142Z,62.48
2023-04-06T03:10:37.192Z,63.08
2023-04-06T03:13:05.160Z,63.76
2023-04-06T03:15:33.177Z,64.41
2023-04-06T03:18:01.332Z,64.88
2023-04-06T03:20:29.300Z,64.97
2023-04-06T03:22:57.416Z,65.10
2023-04-06T03:25:26.787Z,65.68
2023-04-06T03:27:54.649Z,65.78
2023-04-06T03:30:22.852Z,65.86
2023-04-06T03:32:50.967Z,66.38
2023-04-06T03:35:18.994Z,66.61
2023-04-06T03:37:47.152Z,66.70
2023-04-06T03:40:15.648Z,66.41
2023-04-06T03:42:45.189Z,66.63
2023-04-06T03:45:14.119Z,66.02
2023-04-06T03:47:42.144Z,67.54
2023-04-06T03:50:11.105Z,67.35
2023-04-06T03:52:39.076Z,67.37
2023-04-06T03:55:08.452Z,67.16
2023-04-06T03:57:36.335Z,66.87
2023-04-06T04:00:07.052Z,67.35
2023-04-06T04:02:35.181Z,67.82
2023-04-06T04:05:03.629Z,68.09
2023-04-06T04:07:31.757Z,68.39
2023-04-06T04:09:59.803Z,68.88
2023-04-06T04:12:27.785Z,68.74
2023-04-06T04:14:55.839Z,68.62
2023-04-06T04:17:26.812Z,68.56
2023-04-06T04:19:54.805Z,68.27
2023-04-06T04:22:22.817Z,68.67
2023-04-06T04:24:50.770Z,68.64
2023-04-06T04:27:19.000Z,68.67
2023-04-06T04:29:48.096Z,68.80
2023-04-06T04:32:16.601Z,69.07
2023-04-06T04:34:48.605Z,68.65
2023-04-06T04:37:16.601Z,69.04
2023-04-06T04:39:44.508Z,68.38
2023-04-06T04:42:12.396Z,68.10
2023-04-06T04:44:40.750Z,69.16
2023-04-06T04:47:08.634Z,68.62
2023-04-06T04:49:36.704Z,68.93
2023-04-06T04:52:06.122Z,68.00
2023-04-06T04:54:34.019Z,68.04
2023-04-06T04:57:03.709Z,69.04
2023-04-06T04:59:31.830Z,68.25
2023-04-06T05:01:59.723Z,68.65
2023-04-06T05:04:27.854Z,69.80
2023-04-06T05:07:06.849Z,69.60
2023-04-06T05:09:34.919Z,69.54
2023-04-06T05:12:03.106Z,70.66
2023-04-06T05:14:31.505Z,69.71
2023-04-06T05:16:59.458Z,69.16
2023-04-06T05:19:27.567Z,69.04
2023-04-06T05:21:55.638Z,68.88
2023-04-06T05:24:24.998Z,69.46
2023-04-06T05:26:52.982Z,68.74
2023-04-06T05:29:21.185Z,69.20
2023-04-06T05:31:49.545Z,69.21
2023-04-06T05:34:17.679Z,68.28
2023-04-06T05:36:45.614Z,68.87
2023-04-06T05:39:14.038Z,69.88
2023-04-06T05:41:43.292Z,70.08
2023-04-06T05:44:11.394Z,69.81
2023-04-06T05:46:39.332Z,69.96
2023-04-06T05:49:07.397Z,69.83
2023-04-06T05:51:35.382Z,68.77
2023-04-06T05:54:03.381Z,69.33
2023-04-06T05:56:33.019Z,68.79
2023-04-06T05:59:03.646Z,68.19
2023-04-06T06:01:31.829Z,68.10
2023-04-06T06:03:59.805Z,67.86
2023-04-06T06:06:29.700Z,68.30
2023-04-06T06:08:59.933Z,66.77
2023-04-06T06:11:27.883Z,66.96
2023-04-06T06:13:56.251Z,66.63
2023-04-06T06:16:25.655Z,66.16
2023-04-06T06:18:53.629Z,65.83
2023-04-06T06:21:21.504Z,64.96
2023-04-06T06:23:50.378Z,65.04
2023-04-06T06:26:18.562Z,64.54
2023-04-06T06:28:48.605Z,63.77
2023-04-06T06:31:16.644Z,63.46
2023-04-06T06:33:46.206Z,62.88
2023-04-06T06:36:14.150Z,62.70
2023-04-06T06:38:42.093Z,62.15
2023-04-06T06:41:10.114Z,60.69
2023-04-06T06:43:38.254Z,60.10
2023-04-06T06:46:07.058Z,58.55
2023-04-06T06:48:35.435Z,58.88
2023-04-06T06:51:05.153Z,57.10
2023-04-06T06:53:33.100Z,57.07
2023-04-06T06:56:01.042Z,57.03
2023-04-06T06:58:29.121Z,56.63
2023-04-06T07:00:59.363Z,55.57
2023-04-06T07:03:27.766Z,54.90
2023-04-06T07:05:56.012Z,54.15
2023-04-06T07:08:26.741Z,53.89
2023-04-06T07:10:57.201Z,53.80
2023-04-06T07:13:25.762Z,52.88
2023-04-06T07:15:54.095Z,52.07
2023-04-06T07:18:22.975Z,51.08
2023-04-06T07:20:51.251Z,51.21
2023-04-06T07:23:19.186Z,51.19
2023-04-06T07:25:48.533Z,44.43
2023-04-06T07:28:16.537Z,41.02
2023-04-06T07:30:44.587Z,36.75
2023-04-06T07:33:12.607Z,32.82
2023-04-06T07:35:40.847Z,31.86
2023-04-06T07:38:08.945Z,31.02
2023-04-06T07:40:36.844Z,29.90
2023-04-06T07:43:06.215Z,28.07
2023-04-06T07:45:34.249Z,28.39
2023-04-06T07:48:02.315Z,26.88
2023-04-06T07:50:30.581Z,26.11
2023-04-06T07:52:58.802Z,24.64
2023-04-06T07:55:26.763Z,24.42
2023-04-06T07:57:54.902Z,24.14
2023-04-06T08:00:24.574Z,23.58
2023-04-06T08:02:52.696Z,22.20
2023-04-06T08:05:20.744Z,22.36
2023-04-06T08:07:48.661Z,21.86
2023-04-06T08:10:16.754Z,20.83
2023-04-06T08:12:44.719Z,20.58
2023-04-06T08:15:13.015Z,20.91
2023-04-06T08:17:42.511Z,20.42
2023-04-06T08:20:11.195Z,20.26
2023-04-06T08:22:39.093Z,19.68
2023-04-06T08:25:08.230Z,20.03
2023-04-06T08:27:36.229Z,19.72
2023-04-06T08:30:04.683Z,19.97
2023-04-06T08:32:32.779Z,19.99
2023-04-06T08:35:02.152Z,19.97
2023-04-06T08:37:30.904Z,19.73
2023-04-06T08:39:59.934Z,19.83
2023-04-06T08:42:30.776Z,19.47
2023-04-06T08:44:58.782Z,18.73
2023-04-06T08:47:27.068Z,18.99
2023-04-06T08:49:55.918Z,18.65
2023-04-06T08:52:27.741Z,18.33
2023-04-06T08:54:56.004Z,18.28
2023-04-06T08:57:24.451Z,18.18
2023-04-06T08:59:53.377Z,18.47
2023-04-06T09:02:22.791Z,17.65
2023-04-06T09:04:54.701Z,18.77
2023-04-06T09:07:23.570Z,20.18
2023-04-06T09:09:52.960Z,18.95
2023-04-06T09:12:28.759Z,18.86
2023-04-06T09:14:57.625Z,18.78
2023-04-06T09:17:27.764Z,18.21
2023-04-06T09:19:56.913Z,18.61
2023-04-06T09:22:28.080Z,18.43
2023-04-06T09:24:57.634Z,18.35
2023-04-06T09:27:35.562Z,18.54
2023-04-06T09:30:08.917Z,19.14
2023-04-06T09:32:48.182Z,19.17
2023-04-06T09:35:16.739Z,20.15
2023-04-06T09:37:44.894Z,21.18
2023-04-06T09:40:15.865Z,21.39
2023-04-06T09:42:44.781Z,22.21
2023-04-06T09:45:13.206Z,23.00
2023-04-06T09:47:43.371Z,24.00
2023-04-06T09:50:13.346Z,24.15
2023-04-06T09:52:47.490Z,24.83
2023-04-06T09:55:35.450Z,24.92
2023-04-06T09:58:07.327Z,25.21
2023-04-06T10:00:45.193Z,25.81
2023-04-06T10:03:32.589Z,25.97
2023-04-06T10:06:07.036Z,26.26
2023-04-06T10:08:37.213Z,25.27
2023-04-06T10:11:06.940Z,24.81
2023-04-06T10:13:35.709Z,24.92
2023-04-06T10:16:04.075Z,25.08
2023-04-06T10:18:32.426Z,24.28
2023-04-06T10:21:05.296Z,24.18
2023-04-06T10:23:37.176Z,24.67
2023-04-06T10:26:07.503Z,25.01
2023-04-06T10:28:37.122Z,24.19
2023-04-06T10:31:08.155Z,24.22
2023-04-06T10:33:36.173Z,24.61
2023-04-06T10:36:12.768Z,24.42
2023-04-06T10:38:43.514Z,24.45
2023-04-06T10:41:15.088Z,24.61
2023-04-06T10:43:45.403Z,25.47
2023-04-06T10:46:14.497Z,25.67
2023-04-06T10:48:44.646Z,26.28
2023-04-06T10:51:14.257Z,25.90
2023-04-06T10:53:45.463Z,26.25
2023-04-06T10:56:17.079Z,26.54
2023-04-06T10:58:49.700Z,25.98
2023-04-06T11:01:18.991Z,26.36
2023-04-06T11:03:47.339Z,27.16
2023-04-06T11:06:21.221Z,26.43
2023-04-06T11:08:49.853Z,27.00
2023-04-06T11:11:21.141Z,27.17
2023-04-06T11:13:52.022Z,27.31
2023-04-06T11:16:21.396Z,26.92
2023-04-06T11:18:54.636Z,27.58
2023-04-06T11:21:35.363Z,27.64
2023-04-06T11:24:11.680Z,27.92
2023-04-06T11:26:43.049Z,27.81
2023-04-06T11:29:11.661Z,28.26
2023-04-06T11:31:45.079Z,28.25
2023-04-06T11:34:19.478Z,27.87
2023-04-06T11:36:48.943Z,27.82
2023-04-06T11:39:21.906Z,28.23
2023-04-06T11:41:51.923Z,28.14
2023-04-06T11:44:33.620Z,28.21
2023-04-06T11:47:03.322Z,27.82
2023-04-06T11:49:31.860Z,28.54
2023-04-06T11:52:01.292Z,28.06
2023-04-06T11:54:33.679Z,27.64
2023-04-06T11:57:04.626Z,27.89
2023-04-06T11:59:33.015Z,28.20
2023-04-06T12:02:01.170Z,28.13
2023-04-06T12:04:29.113Z,28.14
2023-04-06T12:06:57.262Z,28.19
2023-04-06T12:09:25.465Z,28.15
2023-04-06T12:11:53.417Z,28.27
2023-04-06T12:14:23.040Z,28.21
2023-04-06T12:16:50.920Z,28.31
2023-04-06T12:19:18.999Z,28.34
2023-04-06T12:21:47.037Z,27.68
2023-04-06T12:24:15.042Z,28.38
2023-04-06T12:26:43.294Z,27.61
2023-04-06T12:29:12.123Z,27.78
2023-04-06T12:31:45.580Z,28.23
2023-04-06T12:34:13.824Z,27.97
2023-04-06T12:36:41.823Z,28.02
2023-04-06T12:39:09.994Z,27.96
2023-04-06T12:41:38.144Z,28.51
2023-04-06T12:44:06.102Z,28.48
2023-04-06T12:46:34.214Z,28.31
2023-04-06T12:49:04.142Z,27.85
2023-04-06T12:51:33.007Z,27.80
2023-04-06T12:54:00.930Z,28.21
2023-04-06T12:56:29.124Z,28.07
2023-04-06T12:58:57.657Z,27.99
2023-04-06T13:03:54.501Z,28.38
2023-04-06T13:06:23.809Z,27.81
2023-04-06T13:08:53.358Z,27.64
2023-04-06T13:11:26.869Z,27.87
2023-04-06T13:13:56.234Z,27.80
2023-04-06T13:16:24.460Z,27.85
2023-04-06T13:18:52.385Z,27.82
2023-04-06T13:21:22.085Z,28.10
2023-04-06T13:23:53.424Z,28.30
2023-04-06T13:26:22.424Z,28.15
2023-04-06T13:28:50.642Z,28.00
2023-04-06T13:31:18.722Z,28.07
2023-04-06T13:33:46.900Z,27.59
2023-04-06T13:36:17.464Z,27.59
2023-04-06T13:38:46.295Z,27.80
2023-04-06T13:41:23.467Z,27.75
2023-04-06T13:43:51.949Z,27.76
2023-04-06T13:46:20.258Z,28.29
2023-04-06T13:48:49.122Z,27.98
2023-04-06T13:51:17.105Z,28.06
2023-04-06T13:53:45.130Z,27.96
2023-04-06T13:56:13.053Z,27.81
2023-04-06T13:58:45.908Z,28.08
2023-04-06T14:01:14.391Z,28.29
2023-04-06T14:03:43.344Z,27.80
2023-04-06T14:06:29.673Z,27.64
2023-04-06T14:08:59.433Z,27.85
2023-04-06T14:11:27.579Z,27.85
2023-04-06T14:13:58.511Z,27.85
2023-04-06T14:16:27.381Z,27.95
2023-04-06T14:18:56.134Z,28.18
2023-04-06T14:21:24.456Z,27.89
2023-04-06T14:23:53.651Z,28.08
2023-04-06T14:26:21.790Z,28.39
2023-04-06T14:28:50.063Z,28.32
2023-04-06T14:31:19.453Z,28.26
2023-04-06T14:33:47.722Z,28.28
2023-04-06T14:36:16.482Z,28.23
2023-04-06T14:38:45.209Z,28.60
2023-04-06T14:41:18.080Z,28.98
2023-04-06T14:43:46.339Z,28.42
2023-04-06T14:46:14.815Z,27.96
2023-04-06T14:48:44.198Z,28.52
2023-04-06T14:51:12.372Z,28.11
2023-04-06T14:53:40.350Z,28.33
2023-04-06T14:56:09.041Z,28.25
2023-04-06T14:58:37.289Z,28.21
2023-04-06T15:01:05.577Z,28.25
2023-04-06T15:03:33.448Z,27.30
2023-04-06T15:06:02.850Z,27.35
2023-04-06T15:08:30.760Z,27.12
2023-04-06T15:11:01.336Z,27.11
2023-04-06T15:13:29.370Z,27.41
2023-04-06T15:15:57.593Z,27.75
2023-04-06T15:18:26.271Z,27.48
2023-04-06T15:20:54.302Z,28.01
2023-04-06T15:23:26.450Z,27.74
2023-04-06T15:25:54.577Z,28.10
2023-04-06T15:28:24.931Z,28.04
2023-04-06T15:30:53.334Z,28.23
2023-04-06T15:33:25.256Z,27.77
2023-04-06T15:35:53.251Z,28.01
2023-04-06T15:38:22.310Z,27.92
2023-04-06T15:40:51.713Z,28.26
2023-04-06T15:43:19.895Z,28.62
2023-04-06T15:45:47.981Z,28.47
2023-04-06T15:48:16.387Z,28.83
2023-04-06T15:50:44.582Z,28.83
2023-04-06T15:53:12.742Z,28.98
2023-04-06T15:55:40.630Z,28.93
2023-04-06T15:58:10.132Z,28.45
2023-04-06T16:00:38.050Z,29.01
2023-04-06T16:03:06.285Z,28.85
2023-04-06T16:05:36.337Z,29.24
2023-04-06T16:08:17.031Z,28.86
2023-04-06T16:10:45.267Z,29.21
2023-04-06T16:13:16.697Z,29.21
2023-04-06T16:15:44.752Z,29.32
2023-04-06T16:18:12.636Z,28.95
2023-04-06T16:20:40.792Z,29.22
2023-04-06T16:23:14.860Z,29.48
2023-04-06T16:25:43.021Z,29.79
2023-04-06T16:28:11.324Z,29.69
2023-04-06T16:30:43.574Z,30.16
2023-04-06T16:33:13.886Z,30.04
2023-04-06T16:35:45.770Z,30.03
2023-04-06T16:38:26.294Z,30.01
2023-04-06T16:41:01.659Z,29.82
2023-04-06T16:43:29.734Z,30.07
2023-04-06T16:45:59.290Z,30.22
2023-04-06T16:48:27.467Z,30.63
2023-04-06T17:11:03.069Z,30.55
2023-04-06T17:13:32.492Z,30.81
2023-04-06T17:16:04.617Z,31.10
2023-04-06T17:18:34.780Z,31.08
2023-04-06T17:21:06.899Z,30.96
2023-04-06T17:23:35.347Z,31.06
2023-04-06T17:26:07.577Z,31.12
2023-04-06T17:28:35.812Z,31.17
2023-04-06T17:31:07.982Z,31.38
2023-04-06T17:33:36.479Z,31.72
2023-04-06T17:36:04.633Z,31.50
2023-04-06T17:38:45.889Z,31.69
2023-04-06T17:41:16.120Z,31.77
2023-04-06T17:43:44.063Z,32.02
2023-04-06T17:46:12.302Z,32.41
2023-04-06T17:48:40.629Z,32.97
2023-04-06T17:51:08.595Z,33.21
2023-04-06T17:53:37.230Z,33.51
2023-04-06T17:56:05.487Z,33.31
2023-04-06T17:58:35.411Z,33.41
2023-04-06T18:01:08.446Z,33.81
2023-04-06T18:03:36.769Z,34.18
2023-04-06T18:06:12.334Z,34.17
2023-04-06T18:08:40.431Z,34.33
2023-04-06T18:11:08.990Z,34.35
2023-04-06T18:13:40.085Z,34.41
2023-04-06T18:16:10.795Z,34.28
2023-04-06T18:18:39.161Z,34.63
2023-04-06T18:21:10.568Z,34.82
2023-04-06T18:23:38.828Z,34.94
2023-04-06T18:26:07.542Z,35.13
2023-04-06T18:28:39.702Z,35.41
2023-04-06T18:31:07.750Z,35.45
2023-04-06T18:33:35.728Z,35.24
2023-04-06T18:36:04.496Z,35.36
2023-04-06T18:38:32.461Z,35.44
2023-04-06T18:41:00.487Z,35.60
2023-04-06T18:43:28.726Z,35.68
2023-04-06T18:45:58.035Z,35.73
2023-04-06T18:48:25.993Z,35.92
2023-04-06T18:50:54.353Z,35.72
2023-04-06T18:53:23.701Z,35.86
2023-04-06T18:55:54.377Z,35.95
2023-04-06T18:58:23.399Z,35.81
2023-04-06T19:00:51.436Z,36.27
2023-04-06T19:03:22.104Z,36.25
2023-04-06T19:05:50.616Z,36.37
2023-04-06T19:08:18.680Z,36.21
2023-04-06T19:10:48.993Z,36.21
2023-04-06T19:13:19.554Z,36.51
2023-04-06T19:15:47.517Z,36.29
2023-04-06T19:18:15.564Z,36.63
2023-04-06T19:20:45.516Z,36.64
2023-04-06T19:23:13.911Z,36.87
2023-04-06T19:25:44.361Z,36.99
2023-04-06T19:28:14.461Z,37.34
2023-04-06T19:30:48.271Z,36.94
2023-04-06T19:33:17.363Z,37.61
2023-04-06T19:35:49.396Z,37.49
2023-04-06T19:38:17.306Z,37.20
2023-04-06T19:40:45.398Z,37.64
2023-04-06T19:43:16.376Z,37.55
2023-04-06T19:45:44.767Z,37.93
2023-04-06T19:48:13.154Z,37.51
2023-04-06T19:50:41.182Z,38.01
2023-04-06T19:53:10.860Z,37.71
2023-04-06T19:55:39.315Z,38.04
2023-04-06T19:58:07.513Z,37.92
2023-04-06T20:00:35.824Z,38.16
2023-04-06T20:03:04.121Z,38.17
2023-04-06T20:05:47.863Z,38.40
2023-04-06T20:08:17.245Z,38.41
2023-04-06T20:10:47.333Z,38.88
2023-04-06T20:13:15.683Z,38.44
2023-04-06T20:15:43.884Z,39.04
2023-04-06T20:18:14.124Z,38.66
2023-04-06T20:20:42.553Z,38.92
2023-04-06T20:23:12.731Z,38.55
2023-04-06T20:25:42.201Z,38.77
2023-04-06T20:28:10.900Z,38.60
2023-04-06T20:30:39.426Z,38.72
2023-04-06T20:33:07.576Z,38.81
2023-04-06T20:35:36.176Z,38.88
2023-04-06T20:38:04.663Z,38.74
2023-04-06T20:40:32.759Z,38.40
2023-04-06T20:43:03.356Z,38.83
2023-04-06T20:45:38.573Z,38.68
2023-04-06T20:48:06.697Z,38.76
2023-04-06T20:50:34.842Z,39.23
2023-04-06T20:53:02.891Z,39.19
2023-04-06T20:55:31.305Z,39.39
2023-04-06T20:57:59.492Z,39.00
2023-04-06T21:00:29.042Z,39.50
2023-04-06T21:02:57.265Z,39.55
2023-04-06T21:05:25.880Z,38.89
2023-04-06T21:07:53.920Z,39.01
2023-04-06T21:10:24.018Z,39.46
2023-04-06T21:12:52.112Z,39.40
2023-04-06T21:15:26.814Z,39.60
2023-04-06T21:17:56.726Z,39.31
2023-04-06T21:20:25.606Z,39.04
2023-04-06T21:22:53.808Z,39.49
2023-04-06T21:25:22.380Z,39.52
2023-04-06T21:27:53.393Z,39.77
2023-04-06T21:30:21.992Z,40.02
2023-04-06T21:32:50.174Z,39.81
2023-04-06T21:35:20.031Z,40.18
2023-04-06T21:37:48.029Z,39.85
2023-04-06T21:40:15.948Z,39.62
2023-04-06T21:42:44.206Z,39.77
2023-04-06T21:45:12.721Z,40.38
2023-04-06T21:47:41.042Z,40.21
2023-04-06T21:50:09.431Z,40.12
2023-04-06T21:52:39.158Z,40.70
2023-04-06T21:55:08.046Z,40.80
2023-04-06T21:57:36.953Z,40.62
2023-04-06T22:00:09.829Z,40.46
2023-04-06T22:02:39.438Z,40.97
2023-04-06T22:05:08.650Z,40.88
2023-04-06T22:07:38.709Z,41.44
2023-04-06T22:10:07.642Z,40.56
2023-04-06T22:12:36.032Z,40.78
2023-04-06T22:15:05.411Z,40.76
2023-04-06T22:17:45.428Z,40.71
2023-04-06T22:20:13.818Z,41.11
2023-04-06T22:22:43.369Z,41.21
2023-04-06T22:25:23.451Z,41.14
2023-04-06T22:27:53.493Z,41.08
2023-04-06T22:30:21.786Z,41.43
2023-04-06T22:32:49.861Z,41.07
2023-04-06T22:35:21.348Z,41.48
2023-04-06T22:37:53.044Z,41.50
2023-04-06T22:40:21.086Z,41.61
2023-04-06T22:42:49.281Z,41.74
2023-04-06T22:45:17.763Z,42.06
2023-04-06T22:47:45.897Z,42.11
2023-04-06T22:50:15.345Z,42.37
2023-04-06T22:52:43.504Z,42.41
2023-04-06T22:55:12.941Z,41.78
2023-04-06T22:57:40.991Z,42.33
2023-04-06T23:00:10.585Z,42.91
2023-04-06T23:02:39.879Z,43.02
2023-04-06T23:05:08.370Z,42.53
2023-04-06T23:07:36.655Z,42.97
2023-04-06T23:10:04.794Z,43.20
2023-04-06T23:12:34.362Z,43.38
2023-04-06T23:15:02.526Z,43.64
2023-04-06T23:17:30.810Z,43.54
2023-04-06T23:19:58.864Z,43.24
2023-04-06T23:22:27.112Z,43.32
2023-04-06T23:24:55.216Z,43.94
2023-04-06T23:27:23.250Z,43.51
2023-04-06T23:29:52.541Z,43.58
2023-04-06T23:32:20.499Z,43.60
2023-04-06T23:34:48.739Z,44.09
2023-04-06T23:37:16.746Z,43.65
2023-04-06T23:39:45.342Z,43.74
2023-04-06T23:42:13.253Z,44.27
2023-04-06T23:44:41.328Z,43.62
2023-04-06T23:47:11.862Z,43.91
2023-04-06T23:49:39.801Z,44.28
2023-04-06T23:52:07.879Z,44.26
2023-04-06T23:54:36.237Z,44.37
2023-04-06T23:57:04.540Z,44.17
2023-04-06T23:59:32.609Z,44.42
